Time;durP1;ratioP1;P1;durP2;ratioP2;P2;SDS_P1;SDS_P2;PMS_P1;PMS_P2;Temp;Humidity;BMP_temperature;BMP_pressure;BME280_temperature;BME280_humidity;BME280_pressure;Samples;Min_cycle;Max_cycle;Signal;HPM_P1;HPM_P2
2021/04/15 00:01:45;;;;;;;8.32;3.70;;;;;;;0.91;83.53;97360.69;4971392;28;20660;-43
2021/04/15 00:04:12;;;;;;;8.20;4.07;;;;;;;1.08;83.30;97391.19;4970605;28;20249;-36
2021/04/15 00:06:42;;;;;;;6.07;3.55;;;;;;;1.06;83.48;97390.38;4972222;28;20193;-43
2021/04/15 00:09:13;;;;;;;5.00;4.03;;;;;;;1.08;83.38;97391.19;4971057;28;20232;-43
2021/04/15 00:11:41;;;;;;;6.20;3.90;;;;;;;1.07;83.37;97382.69;4970887;28;20633;-43
2021/04/15 00:14:11;;;;;;;13.65;4.93;;;;;;;1.00;83.22;97383.63;4971141;28;20691;-36
2021/04/15 00:16:38;;;;;;;6.97;3.95;;;;;;;1.00;83.20;97383.63;4971708;28;20869;-37
2021/04/15 00:19:07;;;;;;;6.70;3.92;;;;;;;0.94;82.81;97387.94;4971187;28;20667;-36
2021/04/15 00:21:34;;;;;;;8.75;4.10;;;;;;;0.98;83.17;97387.06;4971337;28;20609;-43
2021/04/15 00:24:03;;;;;;;6.55;3.85;;;;;;;0.90;82.88;97386.31;4971591;28;20237;-36
2021/04/15 00:26:30;;;;;;;6.40;3.53;;;;;;;0.84;82.07;97377.00;4971301;28;20629;-43
2021/04/15 00:28:58;;;;;;;9.52;4.13;;;;;;;0.54;82.02;97361.94;4969548;28;20225;-43
2021/04/15 00:31:28;;;;;;;7.10;3.45;;;;;;;0.61;82.67;97383.22;4972284;28;20186;-36
2021/04/15 00:33:56;;;;;;;6.07;3.50;;;;;;;0.53;83.28;97380.72;4970324;28;20217;-43
2021/04/15 00:36:25;;;;;;;7.40;4.03;;;;;;;0.66;83.50;97372.06;4971505;28;20472;-42
2021/04/15 00:38:54;;;;;;;6.03;3.20;;;;;;;0.66;83.29;97366.94;4970622;28;20248;-36
2021/04/15 00:41:22;;;;;;;5.43;3.78;;;;;;;0.68;83.39;97370.31;4967792;28;20634;-42
2021/04/15 00:43:50;;;;;;;4.93;3.67;;;;;;;0.70;83.49;97373.75;4970905;28;20704;-36
2021/04/15 00:46:45;;;;;;;4.43;3.33;;;;;;;0.67;83.41;97373.75;4970998;28;20676;-36
2021/04/15 00:49:17;;;;;;;7.43;3.47;;;;;;;0.62;83.18;97365.28;4970458;28;20731;-43
2021/04/15 00:51:49;;;;;;;7.35;3.85;;;;;;;0.58;83.48;97361.06;4969879;28;20257;-37
2021/04/15 00:54:31;;;;;;;6.45;3.42;;;;;;;0.58;83.51;97353.38;4970814;28;20640;-43
2021/04/15 00:56:59;;;;;;;5.25;3.47;;;;;;;0.49;83.67;97352.63;4968158;28;20628;-42
2021/04/15 00:59:26;;;;;;;11.70;5.10;;;;;;;0.52;83.68;97350.03;4970897;28;20241;-43
2021/04/15 01:01:54;;;;;;;9.02;4.75;;;;;;;0.48;83.55;97356.91;4969062;28;20592;-36
2021/04/15 01:04:22;;;;;;;9.40;4.30;;;;;;;0.45;83.63;97354.38;4971101;28;20824;-43
2021/04/15 01:06:50;;;;;;;4.80;3.95;;;;;;;0.37;83.48;97343.38;4954206;28;20594;-42
2021/04/15 01:09:18;;;;;;;6.70;3.50;;;;;;;0.49;83.50;97352.63;4970623;28;20531;-42
2021/04/15 01:12:08;;;;;;;6.45;4.20;;;;;;;0.48;83.73;97344.13;4970745;28;20442;-43
2021/04/15 01:14:50;;;;;;;7.07;4.00;;;;;;;0.55;83.87;97355.13;4969627;28;20232;-43
2021/04/15 01:17:26;;;;;;;8.07;4.05;;;;;;;0.53;83.86;97357.69;4968821;28;20723;-36
2021/04/15 01:20:48;;;;;;;14.45;4.28;;;;;;;0.15;84.04;97290.72;4951825;28;20536;-43
2021/04/15 01:23:32;;;;;;;5.97;3.80;;;;;;;0.55;83.64;97357.69;4967485;28;20220;-36
2021/04/15 01:26:37;;;;;;;6.93;4.35;;;;;;;0.40;83.98;97361.28;4954166;28;20221;-41
2021/04/15 01:29:18;;;;;;;9.80;4.45;;;;;;;0.36;84.42;97357.03;4971837;28;20225;-36
2021/04/15 01:32:04;;;;;;;7.03;3.80;;;;;;;0.30;83.89;97361.38;4974375;28;20563;-43
2021/04/15 01:34:41;;;;;;;10.50;4.00;;;;;;;0.16;83.93;97361.50;4953381;28;20896;-36
2021/04/15 01:37:15;;;;;;;6.60;3.90;;;;;;;-0.13;83.31;97330.22;4974501;28;20220;-43
2021/04/15 01:39:48;;;;;;;8.82;4.10;;;;;;;-0.06;83.85;97360.00;4974148;28;20600;-36
2021/04/15 01:42:20;;;;;;;8.13;3.47;;;;;;;0.02;84.41;97352.25;4974150;28;20812;-36
2021/04/15 01:44:51;;;;;;;6.97;4.07;;;;;;;-0.13;84.40;97325.09;4972546;28;20249;-37
2021/04/15 01:47:25;;;;;;;6.22;4.78;;;;;;;0.02;84.81;97349.72;4974604;28;20528;-43
2021/04/15 01:50:00;;;;;;;5.90;4.00;;;;;;;-0.05;84.63;97354.00;4973617;28;20617;-36
2021/04/15 01:52:30;;;;;;;8.40;4.72;;;;;;;0.03;84.87;97357.34;4953133;28;20604;-36
2021/04/15 01:55:05;;;;;;;10.57;4.60;;;;;;;0.09;84.71;97356.47;4947454;28;20704;-47
2021/04/15 01:57:48;;;;;;;6.82;4.55;;;;;;;0.04;84.71;97359.06;4956016;28;20587;-44
2021/04/15 02:00:22;;;;;;;7.28;3.80;;;;;;;0.08;84.99;97360.72;4954393;28;20573;-43
2021/04/15 02:02:53;;;;;;;8.35;4.65;;;;;;;0.06;84.73;97361.59;4973196;28;20190;-44
2021/04/15 02:05:25;;;;;;;6.43;4.65;;;;;;;-0.13;84.45;97343.88;4955264;28;20232;-38
2021/04/15 02:07:58;;;;;;;10.02;4.10;;;;;;;-0.13;84.81;97355.78;4961131;28;20625;-38
2021/04/15 02:10:28;;;;;;;6.90;3.88;;;;;;;-0.10;84.57;97349.81;4951582;28;20677;-44
2021/04/15 02:13:00;;;;;;;8.70;5.22;;;;;;;-0.20;84.99;97352.44;4951027;28;20598;-43
2021/04/15 02:15:31;;;;;;;7.35;4.75;;;;;;;-0.27;84.94;97333.75;4951448;28;20814;-44
2021/04/15 02:18:02;;;;;;;7.05;4.28;;;;;;;-0.08;84.68;97348.94;4952105;28;20565;-38
2021/04/15 02:20:30;;;;;;;4.60;3.47;;;;;;;-0.04;84.93;97357.44;4954844;28;20551;-44
2021/04/15 02:23:04;;;;;;;13.88;5.25;;;;;;;-0.02;85.36;97359.13;4951423;28;20696;-44
2021/04/15 02:25:40;;;;;;;7.40;4.32;;;;;;;-0.03;84.87;97360.84;4954626;28;20618;-45
2021/04/15 02:28:16;;;;;;;9.52;4.85;;;;;;;-0.07;84.72;97358.28;4954496;28;20511;-37
2021/04/15 02:30:47;;;;;;;9.43;4.15;;;;;;;-0.05;84.79;97359.13;4935009;28;20654;-43
2021/04/15 02:33:21;;;;;;;9.63;4.13;;;;;;;-0.03;84.91;97363.41;4953481;28;20627;-44
2021/04/15 02:35:51;;;;;;;11.00;4.85;;;;;;;-0.11;85.27;97353.22;4951398;28;20198;-44
2021/04/15 02:38:26;;;;;;;6.28;4.35;;;;;;;-0.10;85.17;97354.91;4935048;28;20238;-43
2021/04/15 02:40:58;;;;;;;7.28;4.72;;;;;;;-0.11;85.26;97355.78;4954563;28;20191;-38
2021/04/15 02:43:31;;;;;;;6.60;4.10;;;;;;;-0.21;85.56;97345.63;4951486;28;20292;-38
2021/04/15 02:46:05;;;;;;;8.18;4.63;;;;;;;-0.17;85.81;97358.38;4951297;28;20193;-38
2021/04/15 02:48:36;;;;;;;10.55;5.18;;;;;;;-0.21;86.05;97350.75;4952438;28;20226;-43
2021/04/15 02:51:06;;;;;;;8.63;5.13;;;;;;;-0.15;85.63;97355.81;4954064;28;20317;-44
2021/04/15 02:53:57;;;;;;;7.32;4.22;;;;;;;-0.16;85.52;97352.41;4931182;28;20592;-44
2021/04/15 02:56:42;;;;;;;45.00;16.50;;;;;;;-0.15;85.74;97354.09;4918318;28;20655;-43
2021/04/15 02:59:14;;;;;;;54.85;20.05;;;;;;;-0.12;85.82;97352.38;4932805;28;20234;-46
2021/04/15 03:01:47;;;;;;;33.25;13.60;;;;;;;-0.18;85.70;97345.59;4935286;28;20191;-37
2021/04/15 03:04:19;;;;;;;21.65;8.38;;;;;;;-0.26;85.35;97355.91;4934293;28;20286;-43
2021/04/15 03:06:47;;;;;;;30.45;11.98;;;;;;;-0.29;85.69;97335.50;4934102;28;20187;-44
2021/04/15 03:09:17;;;;;;;64.78;21.92;;;;;;;-0.15;85.35;97350.72;4933717;28;20211;-36
2021/04/15 03:11:48;;;;;;;70.38;24.33;;;;;;;-0.16;85.27;97351.56;4933908;28;20258;-42
2021/04/15 03:14:22;;;;;;;35.90;16.58;;;;;;;-0.16;85.25;97346.47;4931554;28;20565;-36
2021/04/15 03:16:51;;;;;;;24.33;9.55;;;;;;;-0.22;85.33;97346.50;4933876;28;20641;-35
2021/04/15 03:19:23;;;;;;;11.82;5.63;;;;;;;-0.26;85.22;97344.81;4939586;28;20229;-45
2021/04/15 03:22:01;;;;;;;9.90;4.90;;;;;;;-0.28;85.26;97349.09;4940489;28;20674;-44
2021/04/15 03:24:32;;;;;;;8.63;4.28;;;;;;;-0.57;85.72;97295.66;5006231;23;20226;-94
2021/04/15 03:27:07;;;;;;;7.35;4.25;;;;;;;-0.70;86.02;97285.53;4947740;28;20254;-94
2021/04/15 03:29:41;;;;;;;7.70;4.00;;;;;;;-0.39;85.66;97325.34;4979173;28;20226;-94
2021/04/15 03:32:19;;;;;;;9.77;5.00;;;;;;;-0.94;85.38;97252.50;4944202;28;20504;-95
2021/04/15 03:34:56;;;;;;;7.50;4.90;;;;;;;-1.45;85.24;97155.84;4927515;29;20266;-95
2021/04/15 03:37:29;;;;;;;6.90;4.65;;;;;;;-0.87;85.45;97243.94;4939639;29;20187;-94
2021/04/15 03:39:58;;;;;;;10.80;5.45;;;;;;;-0.79;85.35;97293.25;4940059;28;20219;-95
2021/04/15 03:42:30;;;;;;;7.15;5.05;;;;;;;-1.14;84.90;97227.09;4945490;28;20268;-95
2021/04/15 03:45:04;;;;;;;9.25;5.20;;;;;;;-0.94;85.12;97272.94;4940825;29;20220;-95
2021/04/15 03:47:38;;;;;;;7.85;5.93;;;;;;;-1.95;84.86;97132.34;4943170;28;20499;-94
2021/04/15 03:50:12;;;;;;;8.40;5.38;;;;;;;-0.52;84.24;97367.19;4942929;29;20233;-95
2021/04/15 03:52:44;;;;;;;7.25;4.28;;;;;;;-2.60;83.45;97061.28;4942661;29;20619;-95
2021/04/15 03:55:22;;;;;;;10.65;5.47;;;;;;;-1.87;83.22;97190.09;4957535;28;20267;-95
2021/04/15 03:57:54;;;;;;;10.32;5.22;;;;;;;-1.63;83.81;97209.56;4940340;29;20653;-96
2021/04/15 04:00:46;;;;;;;10.43;4.95;;;;;;;-2.03;83.76;97119.66;4953638;29;20224;-95
2021/04/15 04:03:21;;;;;;;8.93;5.60;;;;;;;-1.21;84.57;97257.78;4968499;28;20182;-96
2021/04/15 04:05:55;;;;;;;12.13;5.22;;;;;;;-2.02;84.80;97111.13;4947580;29;20188;-93
2021/04/15 04:08:32;;;;;;;7.80;5.00;;;;;;;-1.09;85.18;97280.69;4939877;29;20222;-94
2021/04/15 04:11:01;;;;;;;12.50;4.50;;;;;;;-1.25;84.64;97266.34;4942809;29;20278;-94
2021/04/15 04:13:33;;;;;;;7.43;4.43;;;;;;;-1.19;84.65;97276.50;4938987;29;20677;-93
2021/04/15 04:16:05;;;;;;;9.32;5.70;;;;;;;-0.63;84.99;97368.94;4937637;29;20207;-93
2021/04/15 04:18:46;;;;;;;9.82;5.75;;;;;;;-0.65;84.63;97383.44;4936456;29;20270;-93
2021/04/15 04:21:19;;;;;;;11.95;5.80;;;;;;;-0.76;84.32;97359.69;4937518;29;20625;-94
2021/04/15 04:23:51;;;;;;;8.70;4.88;;;;;;;-0.82;84.27;97363.09;4941731;28;20543;-93
2021/04/15 04:26:26;;;;;;;9.80;6.07;;;;;;;-1.51;84.49;97250.28;4959095;28;20185;-93
2021/04/15 04:29:13;;;;;;;10.02;5.25;;;;;;;-1.90;84.35;97197.78;4960442;28;20220;-94
2021/04/15 04:31:44;;;;;;;21.05;6.25;;;;;;;-1.48;84.79;97279.19;4967591;28;20190;-94
2021/04/15 04:34:15;;;;;;;10.88;5.10;;;;;;;-2.52;84.65;97107.09;4959674;28;20287;-94
2021/04/15 04:36:45;;;;;;;15.18;5.60;;;;;;;-2.48;85.53;97106.25;4961285;28;20237;-94
2021/04/15 04:39:15;;;;;;;10.73;5.45;;;;;;;-1.28;85.99;97302.06;4963522;28;20260;-94
2021/04/15 04:41:54;;;;;;;11.55;5.88;;;;;;;-0.94;85.66;97360.63;4963671;28;20586;-93
2021/04/15 04:44:29;;;;;;;8.98;5.25;;;;;;;-0.76;85.34;97369.91;4960274;28;20299;-93
2021/04/15 04:47:06;;;;;;;10.02;5.65;;;;;;;-0.81;85.57;97369.91;4965559;28;20298;-94
2021/04/15 04:49:37;;;;;;;9.20;5.63;;;;;;;-1.48;85.89;97278.38;4955234;28;20233;-94
2021/04/15 04:52:10;;;;;;;8.35;4.88;;;;;;;-0.96;86.10;97394.69;4975782;28;20633;-93
2021/04/15 04:58:12;;;;;;;10.85;5.43;;;;;;;-1.53;85.67;97274.97;4941996;28;20298;-94
2021/04/15 05:00:44;;;;;;;10.60;5.78;;;;;;;-0.74;85.60;97384.34;4976323;28;20187;-95
2021/04/15 05:03:17;;;;;;;6.63;4.45;;;;;;;-0.64;85.48;97380.03;4971093;28;20648;-93
2021/04/15 05:05:48;;;;;;;5.88;4.20;;;;;;;-1.34;85.36;97263.84;4964000;28;20227;-96
2021/04/15 05:08:24;;;;;;;11.82;5.78;;;;;;;-1.00;85.29;97339.38;4965544;28;20193;-93
2021/04/15 05:10:52;;;;;;;8.60;4.70;;;;;;;-1.21;85.64;97281.63;4967846;28;20198;-94
2021/04/15 05:13:25;;;;;;;7.07;4.85;;;;;;;-1.26;85.87;97264.63;4969785;28;20214;-94
2021/04/15 05:15:55;;;;;;;6.97;4.50;;;;;;;-1.22;86.01;97267.16;4969391;28;20260;-93
2021/04/15 05:18:23;;;;;;;9.50;4.38;;;;;;;-0.72;85.76;97334.09;4955206;28;20234;-93
2021/04/15 05:21:09;;;;;;;9.80;4.65;;;;;;;-0.31;85.37;97390.88;4943889;28;20179;-94
2021/04/15 05:23:42;;;;;;;10.18;5.45;;;;;;;-1.47;84.96;97185.63;4945770;28;20243;-93
2021/04/15 05:26:14;;;;;;;11.02;6.15;;;;;;;-0.81;83.73;97328.19;4949363;28;20641;-94
2021/04/15 05:28:46;;;;;;;7.55;5.05;;;;;;;-1.23;83.46;97241.63;4951612;28;20227;-92
2021/04/15 05:31:28;;;;;;;12.27;5.95;;;;;;;-1.06;83.11;97265.34;4940538;28;20209;-93
2021/04/15 05:37:22;;;;;;;16.83;6.18;;;;;;;-0.14;82.77;97404.41;4927372;28;20204;-93
2021/04/15 05:39:55;;;;;;;11.40;6.15;;;;;;;0.03;82.40;97403.38;4977506;28;20227;-94
2021/04/15 05:42:29;;;;;;;11.52;6.25;;;;;;;0.07;81.74;97410.19;4949240;28;20225;-96
2021/04/15 05:45:02;;;;;;;11.35;6.38;;;;;;;-1.80;81.55;97087.22;4951111;28;20231;-96
2021/04/15 05:47:36;;;;;;;15.85;5.75;;;;;;;-0.05;82.34;97368.53;4950878;28;20183;-96
2021/04/15 05:50:11;;;;;;;14.13;6.93;;;;;;;0.30;82.70;97410.84;4950119;28;20223;-96
2021/04/15 05:52:44;;;;;;;17.80;8.32;;;;;;;0.51;82.44;97402.09;4950081;28;20224;-94
2021/04/15 05:55:16;;;;;;;19.88;10.27;;;;;;;0.02;81.24;97304.50;4953184;28;20281;-96
2021/04/15 05:57:48;;;;;;;26.88;9.73;;;;;;;-0.05;81.01;97250.88;4991956;28;20194;-96
2021/04/15 06:00:20;;;;;;;28.75;10.00;;;;;;;1.10;80.80;97410.81;4968558;28;20214;-93
2021/04/15 06:02:53;;;;;;;25.90;9.25;;;;;;;0.95;80.04;97353.78;4967683;28;20304;-93
2021/04/15 06:05:27;;;;;;;16.48;8.45;;;;;;;-0.04;79.73;97155.34;4966306;28;20769;-93
2021/04/15 06:07:58;;;;;;;21.58;9.93;;;;;;;0.68;79.10;97287.53;4961219;28;20191;-93
2021/04/15 06:10:44;;;;;;;20.27;8.48;;;;;;;0.99;78.77;97340.06;4943773;29;20204;-96
2021/04/15 06:13:20;;;;;;;23.05;8.82;;;;;;;-0.79;78.79;97055.69;4945006;29;20531;-96
2021/04/15 06:15:57;;;;;;;14.75;8.60;;;;;;;1.01;79.35;97343.44;4929731;29;20184;-92
2021/04/15 06:18:31;;;;;;;32.28;14.75;;;;;;;1.16;78.97;97344.09;4931518;29;20259;-94
2021/04/15 06:21:05;;;;;;;20.13;10.05;;;;;;;1.39;78.83;97336.94;4937100;29;20176;-95
2021/04/15 06:23:41;;;;;;;25.83;10.90;;;;;;;0.21;78.31;97137.13;4952657;28;20721;-94
2021/04/15 06:26:25;;;;;;;23.67;11.65;;;;;;;1.46;78.17;97333.41;4987213;28;20175;-94
2021/04/15 06:28:55;;;;;;;20.55;10.95;;;;;;;1.09;78.14;97234.00;4978961;28;20743;-93
2021/04/15 06:31:25;;;;;;;17.98;9.88;;;;;;;0.61;77.47;97111.78;4978356;28;20523;-93
2021/04/15 06:33:56;;;;;;;38.95;8.27;;;;;;;2.65;78.60;97427.25;4967575;28;20705;-95
2021/04/15 06:36:34;;;;;;;6.28;3.42;;;;;;;3.17;78.14;97412.53;4964932;28;20188;-93
2021/04/15 06:39:12;;;;;;;8.00;3.70;;;;;;;2.52;77.15;97260.53;4965391;28;20235;-96
2021/04/15 06:42:10;;;;;;;13.35;3.03;;;;;;;3.72;76.77;97415.63;4962866;28;20188;-94
2021/04/15 06:45:08;;;;;;;3.85;2.22;;;;;;;3.28;75.84;97287.13;4963440;28;20228;-95
2021/04/15 06:48:14;;;;;;;7.20;3.00;;;;;;;4.40;74.52;97420.88;4956741;29;20179;-95
2021/04/15 06:51:00;;;;;;;3.97;2.33;;;;;;;4.32;73.08;97358.38;4904266;28;20219;-94
2021/04/15 06:53:38;;;;;;;5.25;2.60;;;;;;;4.19;72.32;97320.06;4976364;28;20285;-94
2021/04/15 06:56:24;;;;;;;5.10;2.13;;;;;;;5.27;71.06;97422.81;4974471;28;20187;-92
2021/04/15 06:59:38;;;;;;;4.72;2.50;;;;;;;4.94;69.54;97279.34;4965755;28;20638;-94
2021/04/15 07:02:11;;;;;;;13.50;2.90;;;;;;;6.09;68.20;97422.09;4967280;28;20195;-95
2021/04/15 07:04:47;;;;;;;7.82;2.28;;;;;;;4.32;66.93;97072.41;4974825;28;20269;-96
2021/04/15 07:07:19;;;;;;;4.90;2.90;;;;;;;6.02;65.83;97289.69;4971697;28;20175;-96
2021/04/15 07:10:14;;;;;;;5.35;2.13;;;;;;;5.55;64.33;97101.03;4986281;28;20218;-96
2021/04/15 07:13:28;;;;;;;3.03;1.92;;;;;;;7.12;62.34;97278.81;4983313;28;20188;-96
2021/04/15 07:16:36;;;;;;;5.80;2.13;;;;;;;7.12;61.65;97232.22;4971632;28;20219;-96
2021/04/15 07:19:50;;;;;;;5.43;2.50;;;;;;;8.82;58.89;97403.25;4969148;28;21025;-96
2021/04/15 07:23:05;;;;;;;15.97;2.80;;;;;;;9.18;58.08;97399.09;4989750;28;20446;-96
2021/04/15 07:26:16;;;;;;;19.43;2.70;;;;;;;9.16;56.31;97265.00;4891128;29;20972;-95
2021/04/15 07:29:29;;;;;;;6.93;2.17;;;;;;;10.55;54.82;97405.66;4974145;28;20446;-96
2021/04/15 07:32:27;;;;;;;33.00;3.30;;;;;;;9.72;52.62;97198.22;4950269;28;20825;-95
2021/04/15 07:35:34;;;;;;;5.20;2.37;;;;;;;11.19;52.74;97397.13;4946049;28;20475;-95
2021/04/15 07:38:34;;;;;;;4.60;2.07;;;;;;;11.40;51.14;97333.47;4923203;28;20777;-95
2021/04/15 07:41:21;;;;;;;7.40;2.93;;;;;;;10.69;51.34;97260.84;4957327;28;20478;-96
2021/04/15 07:44:24;;;;;;;5.60;2.60;;;;;;;11.49;51.22;97334.75;4952865;28;20462;-96
2021/04/15 07:47:01;;;;;;;4.13;2.53;;;;;;;12.14;51.02;97400.69;4948649;28;20430;-95
2021/04/15 07:49:56;;;;;;;6.50;2.30;;;;;;;12.40;50.07;97401.84;4946125;28;20469;-95
2021/04/15 07:52:53;;;;;;;8.50;2.80;;;;;;;11.23;49.36;97278.81;4947578;28;20811;-94
2021/04/15 07:55:35;;;;;;;44.43;22.13;;;;;;;11.73;49.92;97336.91;4947129;28;20795;-95
2021/04/15 07:58:28;;;;;;;7.97;2.70;;;;;;;11.65;49.91;97401.66;4951441;28;20446;-95
2021/04/15 08:01:38;;;;;;;8.83;2.67;;;;;;;11.23;51.30;97409.09;4969240;28;20475;-96
2021/04/15 08:04:48;;;;;;;5.90;3.40;;;;;;;10.94;52.56;97416.69;4962885;28;20466;-94
2021/04/15 08:07:56;;;;;;;6.90;3.17;;;;;;;10.16;52.09;97270.53;4953622;28;20476;-96
2021/04/15 08:10:46;;;;;;;9.83;2.63;;;;;;;9.58;52.00;97214.47;4993994;28;20453;-94
2021/04/15 08:13:35;;;;;;;3.73;2.50;;;;;;;10.40;52.99;97435.03;4972250;28;20445;-95
2021/04/15 08:16:25;;;;;;;10.70;3.60;;;;;;;9.01;53.73;97175.66;4973019;28;20445;-95
2021/04/15 08:19:08;;;;;;;10.30;3.00;;;;;;;10.12;53.95;97351.41;4974855;28;20805;-94
2021/04/15 08:21:43;;;;;;;7.50;3.47;;;;;;;10.70;54.43;97429.16;4966219;28;20476;-96
2021/04/15 08:24:34;;;;;;;6.87;2.70;;;;;;;9.80;53.29;97307.88;4964594;28;20469;-94
2021/04/15 08:27:33;;;;;;;16.13;3.67;;;;;;;10.19;52.64;97387.47;4966492;28;20465;-93
2021/04/15 08:30:23;;;;;;;46.37;22.20;;;;;;;9.81;54.94;97375.38;4965157;28;20463;-94
2021/04/15 08:33:03;;;;;;;19.67;8.13;;;;;;;10.47;55.20;97421.63;4973865;28;20461;-94
2021/04/15 08:35:56;;;;;;;9.70;3.13;;;;;;;9.69;54.84;97290.19;4980635;28;20971;-96
2021/04/15 08:38:32;;;;;;;8.63;3.30;;;;;;;9.78;54.28;97258.56;4970693;28;20468;-96
2021/04/15 08:41:11;;;;;;;5.40;3.33;;;;;;;10.44;55.30;97340.25;4980144;28;20449;-95
2021/04/15 08:44:04;;;;;;;4.70;3.20;;;;;;;10.85;54.75;97367.69;4975768;28;20465;-94
2021/04/15 08:46:39;;;;;;;10.23;3.67;;;;;;;9.25;53.15;97126.94;4983664;28;20975;-96
2021/04/15 08:49:14;;;;;;;8.80;3.53;;;;;;;11.29;53.54;97418.38;4971967;28;20453;-95
2021/04/15 08:52:05;;;;;;;9.10;3.23;;;;;;;10.84;51.74;97338.19;4974067;28;20748;-95
2021/04/15 08:55:01;;;;;;;5.80;3.40;;;;;;;10.92;52.60;97299.59;4977579;28;20442;-96
2021/04/15 08:57:41;;;;;;;4.60;3.20;;;;;;;11.87;51.25;97394.38;4976589;28;20997;-96
2021/04/15 09:00:22;;;;;;;7.63;3.97;;;;;;;11.48;50.85;97310.44;4973744;28;20477;-96
2021/04/15 09:03:10;;;;;;;8.43;3.40;;;;;;;12.28;48.89;97413.81;4959413;23;21048;-35
2021/04/15 09:05:58;;;;;;;5.57;3.03;;;;;;;11.84;51.53;97402.38;4937571;28;20446;-37
2021/04/15 09:08:32;;;;;;;8.43;3.37;;;;;;;12.17;50.65;97415.34;4936198;28;21041;-44
2021/04/15 09:11:07;;;;;;;7.60;3.30;;;;;;;12.00;48.75;97340.59;4938249;28;20736;-46
2021/04/15 09:13:39;;;;;;;6.80;2.90;;;;;;;12.19;48.19;97414.34;4939195;28;20514;-36
2021/04/15 09:16:37;;;;;;;6.27;3.23;;;;;;;12.00;49.56;97408.44;4940235;28;20959;-36
2021/04/15 09:19:17;;;;;;;6.63;3.40;;;;;;;12.11;50.11;97395.66;4952420;28;20977;-43
2021/04/15 09:21:53;;;;;;;35.40;3.60;;;;;;;12.38;49.11;97404.53;4939162;28;20514;-42
2021/04/15 09:24:34;;;;;;;7.40;3.50;;;;;;;12.61;47.64;97411.09;4938582;28;20469;-42
2021/04/15 09:27:24;;;;;;;8.67;3.43;;;;;;;12.73;46.66;97406.00;4937439;28;20925;-42
2021/04/15 09:30:01;;;;;;;7.40;3.47;;;;;;;12.90;46.05;97409.31;4930923;28;20819;-43
2021/04/15 09:32:57;;;;;;;9.50;3.30;;;;;;;11.36;45.80;97206.88;5020536;23;20417;-96
2021/04/15 09:35:42;;;;;;;10.90;3.07;;;;;;;11.15;47.25;97308.78;4947458;29;20571;-96
2021/04/15 09:38:33;;;;;;;70.90;33.00;;;;;;;11.10;48.08;97285.59;4959606;28;20865;-96
2021/04/15 09:41:15;;;;;;;7.50;4.87;;;;;;;10.60;48.06;97127.75;4957413;29;20789;-94
2021/04/15 09:44:07;;;;;;;9.60;3.87;;;;;;;11.65;47.97;97195.66;4956664;28;20463;-96
2021/04/15 09:46:50;;;;;;;17.13;3.90;;;;;;;12.13;46.91;97258.09;4918262;29;20451;-96
2021/04/15 09:49:35;;;;;;;14.30;4.47;;;;;;;11.08;46.84;97295.25;4972895;28;20446;-96
2021/04/15 09:52:20;;;;;;;13.27;3.50;;;;;;;11.52;49.92;97404.97;4973791;28;20465;-96
2021/04/15 09:55:04;;;;;;;5.00;2.70;;;;;;;11.36;48.47;97269.41;4984690;28;20470;-95
2021/04/15 09:57:39;;;;;;;4.83;3.20;;;;;;;10.54;45.93;97130.69;4976928;28;20460;-96
2021/04/15 10:00:20;;;;;;;10.80;3.60;;;;;;;11.93;47.90;97296.69;4955814;28;20472;-96
2021/04/15 10:02:57;;;;;;;8.43;2.13;;;;;;;11.93;46.36;97229.69;4968113;28;20451;-95
2021/04/15 10:05:47;;;;;;;7.60;2.03;;;;;;;12.74;44.33;97292.75;4956516;29;20929;-96
2021/04/15 10:08:25;;;;;;;4.47;2.03;;;;;;;11.30;44.86;97060.41;4966699;28;20512;-94
2021/04/15 10:11:01;;;;;;;6.30;2.27;;;;;;;13.76;44.40;97401.50;4955197;29;20432;-95
2021/04/15 10:13:44;;;;;;;3.07;2.03;;;;;;;13.49;42.06;97282.91;4952881;28;20924;-96
2021/04/15 10:16:21;;;;;;;3.40;2.00;;;;;;;12.60;41.01;97101.25;4948472;29;20838;-94
2021/04/15 10:19:28;;;;;;;9.60;2.20;;;;;;;12.27;43.03;97187.66;4949639;28;20475;-95
2021/04/15 10:22:02;;;;;;;6.13;2.60;;;;;;;13.07;43.07;97262.00;4966179;28;20446;-96
2021/04/15 10:24:37;;;;;;;3.10;2.27;;;;;;;13.59;42.96;97278.75;4946342;28;20467;-96
2021/04/15 10:27:46;;;;;;;26.00;2.73;;;;;;;14.62;44.27;97365.41;4948465;29;20450;-96
2021/04/15 10:30:56;;;;;;;5.60;1.40;;;;;;;14.80;40.95;97251.53;4946311;29;20518;-94
2021/04/15 10:34:08;;;;;;;3.30;2.20;;;;;;;15.81;40.08;97368.56;4949488;29;20787;-95
2021/04/15 10:36:56;;;;;;;5.57;2.20;;;;;;;14.98;42.00;97266.81;4939763;29;20490;-93
2021/04/15 10:39:52;;;;;;;11.03;2.37;;;;;;;14.20;38.97;97197.97;4951855;28;20544;-95
2021/04/15 10:42:56;;;;;;;4.00;1.90;;;;;;;14.05;39.98;97356.03;4956389;29;20440;-94
2021/04/15 10:45:56;;;;;;;4.17;1.60;;;;;;;12.16;39.81;97165.75;4955736;28;20896;-92
2021/04/15 10:48:34;;;;;;;6.83;1.90;;;;;;;12.30;42.62;97304.94;4956570;28;20490;-94
2021/04/15 10:51:14;;;;;;;5.43;2.50;;;;;;;10.95;40.57;97103.22;4947457;29;20919;-95
2021/04/15 10:53:50;;;;;;;202.40;95.87;;;;;;;10.68;43.72;97152.44;4948984;29;20489;-96
2021/04/15 10:56:53;;;;;;;6.60;3.17;;;;;;;12.37;43.77;97350.66;4951197;28;20443;-94
2021/04/15 10:59:35;;;;;;;6.80;2.40;;;;;;;13.03;44.07;97284.03;4927673;29;20528;-95
2021/04/15 11:02:38;;;;;;;4.13;2.20;;;;;;;12.37;40.86;97243.59;4981850;28;20466;-96
2021/04/15 11:05:23;;;;;;;8.27;3.57;;;;;;;11.57;43.53;97140.47;4974411;28;20564;-94
2021/04/15 11:07:52;;;;;;;27.23;3.30;;;;;;;13.59;43.43;97237.75;4989193;28;20447;-96
2021/04/15 11:10:50;;;;;;;11.37;2.63;;;;;;;14.06;40.65;97164.00;4956279;28;20463;-94
2021/04/15 11:16:20;;;;;;;11.93;2.13;;;;;;;13.51;42.12;97219.06;4956222;29;20448;-94
2021/04/15 11:19:08;;;;;;;23.13;2.20;;;;;;;12.34;40.94;97055.00;4959031;28;20542;-94
2021/04/15 11:21:43;;;;;;;10.17;2.00;;;;;;;10.16;40.69;96991.41;4972782;28;20440;-95
2021/04/15 11:24:41;;;;;;;5.70;2.43;;;;;;;9.98;43.81;96994.94;4970066;28;20467;-95
2021/04/15 11:27:13;;;;;;;21.97;3.63;;;;;;;11.52;44.15;97253.75;4957413;29;20447;-94
2021/04/15 11:29:45;;;;;;;4.03;1.93;;;;;;;11.74;44.41;97260.34;4954896;28;20542;-94
2021/04/15 11:32:29;;;;;;;13.43;2.60;;;;;;;12.07;44.73;97315.03;4958371;29;20451;-94
2021/04/15 11:35:17;;;;;;;11.60;2.50;;;;;;;10.11;45.13;97046.25;4963406;29;20475;-94
2021/04/15 11:37:48;;;;;;;7.37;2.47;;;;;;;10.91;44.11;97231.94;4980422;28;20534;-94
2021/04/15 11:40:31;;;;;;;137.70;58.53;;;;;;;10.69;45.14;97228.78;4960981;29;20969;-93
2021/04/15 11:45:44;;;;;;;4.17;2.23;;;;;;;8.66;49.03;97071.81;4974616;28;20459;-95
2021/04/15 11:48:21;;;;;;;11.83;3.20;;;;;;;8.62;52.05;97208.63;4979124;28;20475;-94
2021/04/15 11:51:18;;;;;;;10.50;3.33;;;;;;;8.03;53.22;97221.63;4968037;29;20431;-94
2021/04/15 11:53:53;;;;;;;12.80;3.50;;;;;;;8.08;54.59;97126.38;4965389;28;21063;-95
2021/04/15 11:56:32;;;;;;;11.57;4.17;;;;;;;8.85;53.30;97168.69;4966951;29;20435;-95
2021/04/15 12:02:14;;;;;;;7.23;3.20;;;;;;;10.97;50.82;97335.81;4950092;28;20482;-73
2021/04/15 12:04:42;;;;;;;6.90;3.43;;;;;;;10.99;50.39;97326.97;4942744;28;20796;-75
2021/04/15 12:07:21;;;;;;;6.40;2.40;;;;;;;10.96;48.58;97327.16;4937622;28;20764;-77
2021/04/15 12:09:50;;;;;;;15.13;3.00;;;;;;;10.85;49.45;97332.09;4949411;28;20462;-75
2021/04/15 12:12:25;;;;;;;4.23;2.60;;;;;;;10.89;48.46;97335.38;4939363;28;20945;-74
2021/04/15 12:14:54;;;;;;;6.27;3.37;;;;;;;10.82;47.32;97332.22;4940499;28;20461;-76
2021/04/15 12:17:33;;;;;;;3.30;1.90;;;;;;;11.05;47.36;97321.47;4948911;28;20473;-73
2021/04/15 12:20:06;;;;;;;5.57;2.60;;;;;;;11.68;46.19;97317.22;4941719;28;20488;-75
2021/04/15 12:22:39;;;;;;;3.97;2.10;;;;;;;12.94;43.67;97322.03;4939907;28;20899;-74
2021/04/15 12:25:15;;;;;;;6.63;1.90;;;;;;;14.02;41.99;97311.75;4947877;28;20466;-73
2021/04/15 12:27:42;;;;;;;3.30;2.37;;;;;;;14.73;40.37;97307.91;4936591;28;20778;-75
2021/04/15 12:30:17;;;;;;;4.70;2.37;;;;;;;14.73;40.37;97310.53;4944077;28;21028;-73
2021/04/15 12:32:50;;;;;;;5.87;2.37;;;;;;;14.64;40.20;97313.75;4942255;28;21110;-75
2021/04/15 12:35:33;;;;;;;17.73;4.40;;;;;;;14.18;41.18;97304.63;4941321;28;20868;-74
2021/04/15 12:38:09;;;;;;;2.93;2.23;;;;;;;14.27;41.19;97304.00;4946965;28;20931;-72
2021/04/15 12:40:38;;;;;;;5.23;1.80;;;;;;;14.87;42.98;97299.97;4940289;28;20477;-73
2021/04/15 12:43:11;;;;;;;18.97;3.50;;;;;;;15.48;42.08;97307.94;4948024;28;20882;-72
2021/04/15 12:45:43;;;;;;;17.93;2.30;;;;;;;14.65;42.83;97304.94;4938326;28;20832;-72